sensor_id;sensor_type;location;lat;lon;timestamp;pressure;altitude;pressure_sealevel;temperature;humidity
50434;BME280;36361;38.954;-9.002;2023-12-04T00:00:25;100671.78;;;14.16;100.00
50434;BME280;36361;38.954;-9.002;2023-12-04T00:01:28;100662.53;;;14.17;100.00
50434;BME280;36361;38.954;-9.002;2023-12-04T00:02:28;100665.94;;;14.13;100.00
50434;BME280;36361;38.954;-9.002;2023-12-04T00:03:29;100668.09;;;14.11;100.00
50434;BME280;36361;38.954;-9.002;2023-12-04T00:04:30;100676.06;;;14.12;100.00
50434;BME280;36361;38.954;-9.002;2023-12-04T00:05:31;100672.75;;;14.10;100.00
50434;BME280;36361;38.954;-9.002;2023-12-04T00:06:32;100676.56;;;14.09;100.00
50434;BME280;36361;38.954;-9.002;2023-12-04T00:07:32;100679.88;;;14.11;100.00
50434;BME280;36361;38.954;-9.002;2023-12-04T00:08:34;100675.25;;;14.12;100.00
50434;BME280;36361;38.954;-9.002;2023-12-04T00:09:34;100681.69;;;14.17;100.00
50434;BME280;36361;38.954;-9.002;2023-12-04T00:10:35;100677.63;;;14.20;100.00
50434;BME280;36361;38.954;-9.002;2023-12-04T00:11:36;100677.25;;;14.16;100.00
50434;BME280;36361;38.954;-9.002;2023-12-04T00:12:37;100679.41;;;14.14;100.00
50434;BME280;36361;38.954;-9.002;2023-12-04T00:13:41;100678.31;;;14.15;100.00
50434;BME280;36361;38.954;-9.002;2023-12-04T00:14:42;100676.19;;;14.17;100.00
50434;BME280;36361;38.954;-9.002;2023-12-04T00:15:44;100670.09;;;14.15;100.00
50434;BME280;36361;38.954;-9.002;2023-12-04T00:16:44;100674.88;;;14.20;100.00
50434;BME280;36361;38.954;-9.002;2023-12-04T00:17:45;100674.28;;;14.18;100.00
50434;BME280;36361;38.954;-9.002;2023-12-04T00:18:49;100676.41;;;14.16;100.00
50434;BME280;36361;38.954;-9.002;2023-12-04T00:19:50;100684.25;;;14.24;100.00
50434;BME280;36361;38.954;-9.002;2023-12-04T00:20:51;100688.06;;;14.23;100.00
50434;BME280;36361;38.954;-9.002;2023-12-04T00:21:52;100679.16;;;14.28;100.00
50434;BME280;36361;38.954;-9.002;2023-12-04T00:22:53;100675.81;;;14.26;100.00
50434;BME280;36361;38.954;-9.002;2023-12-04T00:23:55;100670.81;;;14.22;100.00
50434;BME280;36361;38.954;-9.002;2023-12-04T00:24:55;100673.47;;;14.17;100.00
50434;BME280;36361;38.954;-9.002;2023-12-04T00:25:56;100672.25;;;14.13;100.00
50434;BME280;36361;38.954;-9.002;2023-12-04T00:26:57;100667.72;;;14.07;100.00
50434;BME280;36361;38.954;-9.002;2023-12-04T00:27:58;100671.91;;;14.10;100.00
50434;BME280;36361;38.954;-9.002;2023-12-04T00:28:58;100671.19;;;14.03;100.00
50434;BME280;36361;38.954;-9.002;2023-12-04T00:29:59;100662.84;;;13.98;100.00
50434;BME280;36361;38.954;-9.002;2023-12-04T00:31:00;100670.25;;;14.09;100.00
50434;BME280;36361;38.954;-9.002;2023-12-04T00:32:01;100665.13;;;14.01;100.00
50434;BME280;36361;38.954;-9.002;2023-12-04T00:33:02;100664.53;;;13.99;100.00
50434;BME280;36361;38.954;-9.002;2023-12-04T00:34:03;100662.16;;;13.90;100.00
50434;BME280;36361;38.954;-9.002;2023-12-04T00:35:04;100661.09;;;14.03;100.00
50434;BME280;36361;38.954;-9.002;2023-12-04T00:36:05;100658.47;;;13.97;100.00
50434;BME280;36361;38.954;-9.002;2023-12-04T00:37:06;100651.09;;;13.97;100.00
50434;BME280;36361;38.954;-9.002;2023-12-04T00:38:06;100655.00;;;13.89;100.00
50434;BME280;36361;38.954;-9.002;2023-12-04T00:39:07;100660.03;;;13.92;100.00
50434;BME280;36361;38.954;-9.002;2023-12-04T00:40:08;100663.69;;;13.86;100.00
50434;BME280;36361;38.954;-9.002;2023-12-04T00:41:10;100660.84;;;13.93;100.00
50434;BME280;36361;38.954;-9.002;2023-12-04T00:42:11;100669.31;;;13.91;100.00
50434;BME280;36361;38.954;-9.002;2023-12-04T00:43:12;100668.09;;;13.87;100.00
50434;BME280;36361;38.954;-9.002;2023-12-04T00:44:13;100673.09;;;13.90;100.00
50434;BME280;36361;38.954;-9.002;2023-12-04T00:45:13;100678.44;;;13.97;100.00
50434;BME280;36361;38.954;-9.002;2023-12-04T00:46:14;100675.94;;;13.95;100.00
50434;BME280;36361;38.954;-9.002;2023-12-04T00:47:18;100673.81;;;13.98;100.00
50434;BME280;36361;38.954;-9.002;2023-12-04T00:48:19;100674.03;;;14.08;100.00
50434;BME280;36361;38.954;-9.002;2023-12-04T00:49:20;100684.63;;;14.04;100.00
50434;BME280;36361;38.954;-9.002;2023-12-04T00:50:20;100684.53;;;14.11;100.00
50434;BME280;36361;38.954;-9.002;2023-12-04T00:51:21;100685.47;;;14.05;100.00
50434;BME280;36361;38.954;-9.002;2023-12-04T00:52:22;100687.13;;;14.06;100.00
50434;BME280;36361;38.954;-9.002;2023-12-04T00:53:23;100678.81;;;14.01;100.00
50434;BME280;36361;38.954;-9.002;2023-12-04T00:54:24;100684.41;;;14.06;100.00
50434;BME280;36361;38.954;-9.002;2023-12-04T00:55:25;100679.97;;;14.16;100.00
50434;BME280;36361;38.954;-9.002;2023-12-04T00:56:25;100679.28;;;14.21;100.00
50434;BME280;36361;38.954;-9.002;2023-12-04T00:57:26;100667.25;;;14.22;100.00
50434;BME280;36361;38.954;-9.002;2023-12-04T00:58:27;100675.97;;;14.19;100.00
50434;BME280;36361;38.954;-9.002;2023-12-04T00:59:28;100673.47;;;14.17;100.00
50434;BME280;36361;38.954;-9.002;2023-12-04T01:00:28;100677.00;;;14.06;100.00
50434;BME280;36361;38.954;-9.002;2023-12-04T01:01:29;100690.00;;;14.11;100.00
50434;BME280;36361;38.954;-9.002;2023-12-04T01:02:30;100682.88;;;14.10;100.00
50434;BME280;36361;38.954;-9.002;2023-12-04T01:03:31;100689.03;;;14.05;100.00
50434;BME280;36361;38.954;-9.002;2023-12-04T01:04:33;100687.38;;;14.04;100.00
50434;BME280;36361;38.954;-9.002;2023-12-04T01:05:34;100688.56;;;13.97;100.00
50434;BME280;36361;38.954;-9.002;2023-12-04T01:06:35;100696.53;;;13.98;100.00
50434;BME280;36361;38.954;-9.002;2023-12-04T01:07:39;100679.66;;;14.01;100.00
50434;BME280;36361;38.954;-9.002;2023-12-04T01:08:40;100684.16;;;13.95;100.00
50434;BME280;36361;38.954;-9.002;2023-12-04T01:09:41;100684.06;;;13.90;100.00
50434;BME280;36361;38.954;-9.002;2023-12-04T01:10:41;100679.41;;;13.91;100.00
50434;BME280;36361;38.954;-9.002;2023-12-04T01:11:42;100682.75;;;13.81;100.00
50434;BME280;36361;38.954;-9.002;2023-12-04T01:12:43;100688.81;;;13.83;100.00
50434;BME280;36361;38.954;-9.002;2023-12-04T01:13:44;100687.94;;;13.71;100.00
50434;BME280;36361;38.954;-9.002;2023-12-04T01:14:44;100692.47;;;13.65;100.00
50434;BME280;36361;38.954;-9.002;2023-12-04T01:15:45;100692.34;;;13.72;100.00
50434;BME280;36361;38.954;-9.002;2023-12-04T01:16:47;100697.84;;;13.72;100.00
50434;BME280;36361;38.954;-9.002;2023-12-04T01:17:47;100701.66;;;13.83;100.00
50434;BME280;36361;38.954;-9.002;2023-12-04T01:18:48;100701.06;;;13.81;100.00
50434;BME280;36361;38.954;-9.002;2023-12-04T01:19:49;100702.94;;;13.80;100.00
50434;BME280;36361;38.954;-9.002;2023-12-04T01:20:50;100702.34;;;13.78;100.00
50434;BME280;36361;38.954;-9.002;2023-12-04T01:21:51;100702.34;;;13.78;100.00
50434;BME280;36361;38.954;-9.002;2023-12-04T01:22:51;100697.13;;;13.88;100.00
50434;BME280;36361;38.954;-9.002;2023-12-04T01:23:52;100694.28;;;13.83;100.00
50434;BME280;36361;38.954;-9.002;2023-12-04T01:24:53;100681.41;;;13.72;100.00
50434;BME280;36361;38.954;-9.002;2023-12-04T01:25:54;100678.19;;;13.63;100.00
50434;BME280;36361;38.954;-9.002;2023-12-04T01:26:54;100676.06;;;13.77;100.00
50434;BME280;36361;38.954;-9.002;2023-12-04T01:27:55;100672.72;;;13.63;100.00
50434;BME280;36361;38.954;-9.002;2023-12-04T01:28:56;100684.69;;;13.51;100.00
50434;BME280;36361;38.954;-9.002;2023-12-04T01:29:57;100676.63;;;13.56;100.00
50434;BME280;36361;38.954;-9.002;2023-12-04T01:30:58;100685.16;;;13.48;100.00
50434;BME280;36361;38.954;-9.002;2023-12-04T01:31:59;100691.97;;;13.57;100.00
50434;BME280;36361;38.954;-9.002;2023-12-04T01:33:00;100694.84;;;13.74;100.00
50434;BME280;36361;38.954;-9.002;2023-12-04T01:34:01;100704.00;;;13.79;100.00
50434;BME280;36361;38.954;-9.002;2023-12-04T01:35:02;100699.97;;;13.82;100.00
50434;BME280;36361;38.954;-9.002;2023-12-04T01:36:04;100699.25;;;13.86;100.00
50434;BME280;36361;38.954;-9.002;2023-12-04T01:37:04;100703.16;;;13.79;100.00
50434;BME280;36361;38.954;-9.002;2023-12-04T01:38:05;100703.41;;;13.77;100.00
50434;BME280;36361;38.954;-9.002;2023-12-04T01:39:06;100710.44;;;13.73;100.00
50434;BME280;36361;38.954;-9.002;2023-12-04T01:40:07;100701.16;;;13.74;100.00
50434;BME280;36361;38.954;-9.002;2023-12-04T01:41:09;100700.28;;;13.62;100.00
50434;BME280;36361;38.954;-9.002;2023-12-04T01:42:10;100707.78;;;13.55;100.00
50434;BME280;36361;38.954;-9.002;2023-12-04T01:43:11;100708.97;;;13.59;100.00
50434;BME280;36361;38.954;-9.002;2023-12-04T01:44:12;100699.81;;;13.53;100.00
50434;BME280;36361;38.954;-9.002;2023-12-04T01:45:13;100708.13;;;13.47;100.00
50434;BME280;36361;38.954;-9.002;2023-12-04T01:46:15;100705.22;;;13.42;100.00
50434;BME280;36361;38.954;-9.002;2023-12-04T01:47:17;100704.41;;;13.41;100.00
50434;BME280;36361;38.954;-9.002;2023-12-04T01:48:19;100697.19;;;13.47;100.00
50434;BME280;36361;38.954;-9.002;2023-12-04T01:49:20;100709.50;;;13.37;100.00
50434;BME280;36361;38.954;-9.002;2023-12-04T01:50:21;100715.09;;;13.43;100.00
50434;BME280;36361;38.954;-9.002;2023-12-04T01:51:23;100707.53;;;13.45;100.00
50434;BME280;36361;38.954;-9.002;2023-12-04T01:52:24;100710.44;;;13.31;100.00
50434;BME280;36361;38.954;-9.002;2023-12-04T01:53:25;100711.97;;;13.27;100.00
50434;BME280;36361;38.954;-9.002;2023-12-04T01:54:26;100712.34;;;13.31;100.00
50434;BME280;36361;38.954;-9.002;2023-12-04T01:55:28;100723.25;;;13.31;100.00
50434;BME280;36361;38.954;-9.002;2023-12-04T01:56:30;100730.03;;;13.28;100.00
50434;BME280;36361;38.954;-9.002;2023-12-04T01:57:31;100729.44;;;13.26;100.00
50434;BME280;36361;38.954;-9.002;2023-12-04T01:58:35;100731.88;;;13.46;100.00
50434;BME280;36361;38.954;-9.002;2023-12-04T01:59:40;100734.66;;;13.58;100.00
50434;BME280;36361;38.954;-9.002;2023-12-04T02:00:41;100732.97;;;13.57;100.00
50434;BME280;36361;38.954;-9.002;2023-12-04T02:01:48;100733.88;;;13.39;100.00
50434;BME280;36361;38.954;-9.002;2023-12-04T02:02:50;100734.94;;;13.38;100.00
50434;BME280;36361;38.954;-9.002;2023-12-04T02:03:50;100737.59;;;13.45;100.00
50434;BME280;36361;38.954;-9.002;2023-12-04T02:04:54;100737.22;;;13.53;100.00
50434;BME280;36361;38.954;-9.002;2023-12-04T02:05:59;100738.28;;;13.40;100.00
50434;BME280;36361;38.954;-9.002;2023-12-04T02:07:01;100742.00;;;13.46;100.00
50434;BME280;36361;38.954;-9.002;2023-12-04T02:08:02;100745.56;;;13.46;100.00
50434;BME280;36361;38.954;-9.002;2023-12-04T02:09:04;100745.03;;;13.37;100.00
50434;BME280;36361;38.954;-9.002;2023-12-04T02:10:10;100745.94;;;13.61;100.00
50434;BME280;36361;38.954;-9.002;2023-12-04T02:11:11;100740.72;;;13.60;100.00
50434;BME280;36361;38.954;-9.002;2023-12-04T02:12:12;100752.72;;;13.59;100.00
50434;BME280;36361;38.954;-9.002;2023-12-04T02:13:13;100751.88;;;13.58;100.00
50434;BME280;36361;38.954;-9.002;2023-12-04T02:14:14;100750.50;;;13.37;100.00
50434;BME280;36361;38.954;-9.002;2023-12-04T02:15:14;100756.06;;;13.31;100.00
50434;BME280;36361;38.954;-9.002;2023-12-04T02:16:16;100752.13;;;13.27;100.00
50434;BME280;36361;38.954;-9.002;2023-12-04T02:17:19;100757.56;;;13.45;100.00
50434;BME280;36361;38.954;-9.002;2023-12-04T02:18:21;100756.06;;;13.31;100.00
50434;BME280;36361;38.954;-9.002;2023-12-04T02:19:23;100753.28;;;13.19;100.00
50434;BME280;36361;38.954;-9.002;2023-12-04T02:20:34;100754.41;;;13.30;100.00
50434;BME280;36361;38.954;-9.002;2023-12-04T02:21:35;100750.38;;;13.14;100.00
50434;BME280;36361;38.954;-9.002;2023-12-04T02:22:37;100753.81;;;13.09;100.00
50434;BME280;36361;38.954;-9.002;2023-12-04T02:23:38;100752.50;;;13.12;100.00
50434;BME280;36361;38.954;-9.002;2023-12-04T02:24:39;100751.19;;;13.15;100.00
50434;BME280;36361;38.954;-9.002;2023-12-04T02:25:40;100751.66;;;13.12;100.00
50434;BME280;36361;38.954;-9.002;2023-12-04T02:26:57;100755.84;;;13.14;100.00
50434;BME280;36361;38.954;-9.002;2023-12-04T02:28:02;100760.78;;;13.05;100.00
50434;BME280;36361;38.954;-9.002;2023-12-04T02:29:08;100766.75;;;13.14;100.00
50434;BME280;36361;38.954;-9.002;2023-12-04T02:30:12;100759.03;;;13.11;100.00
50434;BME280;36361;38.954;-9.002;2023-12-04T02:31:15;100765.81;;;13.08;100.00
50434;BME280;36361;38.954;-9.002;2023-12-04T02:32:19;100764.13;;;13.07;100.00
50434;BME280;36361;38.954;-9.002;2023-12-04T02:33:23;100774.06;;;13.02;100.00
50434;BME280;36361;38.954;-9.002;2023-12-04T02:34:25;100771.19;;;12.97;100.00
50434;BME280;36361;38.954;-9.002;2023-12-04T02:35:29;100776.81;;;13.02;100.00
50434;BME280;36361;38.954;-9.002;2023-12-04T02:36:34;100779.53;;;13.02;100.00
50434;BME280;36361;38.954;-9.002;2023-12-04T02:37:35;100775.97;;;13.01;100.00
50434;BME280;36361;38.954;-9.002;2023-12-04T02:38:36;100776.66;;;12.97;100.00
50434;BME280;36361;38.954;-9.002;2023-12-04T02:39:38;100781.72;;;13.12;100.00
50434;BME280;36361;38.954;-9.002;2023-12-04T02:40:39;100771.03;;;13.10;100.00
50434;BME280;36361;38.954;-9.002;2023-12-04T02:41:40;100772.41;;;13.01;100.00
50434;BME280;36361;38.954;-9.002;2023-12-04T02:42:40;100776.34;;;13.05;100.00
50434;BME280;36361;38.954;-9.002;2023-12-04T02:43:41;100773.31;;;12.95;100.00
50434;BME280;36361;38.954;-9.002;2023-12-04T02:44:42;100774.97;;;12.96;100.00
50434;BME280;36361;38.954;-9.002;2023-12-04T02:45:43;100778.78;;;12.95;100.00
50434;BME280;36361;38.954;-9.002;2023-12-04T02:46:44;100775.44;;;12.93;100.00
50434;BME280;36361;38.954;-9.002;2023-12-04T02:47:48;100777.47;;;12.97;100.00
50434;BME280;36361;38.954;-9.002;2023-12-04T02:48:49;100785.91;;;12.96;100.00
50434;BME280;36361;38.954;-9.002;2023-12-04T02:49:49;100788.03;;;12.94;100.00
50434;BME280;36361;38.954;-9.002;2023-12-04T02:50:50;100787.13;;;13.00;100.00
50434;BME280;36361;38.954;-9.002;2023-12-04T02:51:54;100794.81;;;12.91;100.00
50434;BME280;36361;38.954;-9.002;2023-12-04T02:52:55;100784.22;;;13.13;100.00
50434;BME280;36361;38.954;-9.002;2023-12-04T02:53:57;100792.28;;;13.08;100.00
50434;BME280;36361;38.954;-9.002;2023-12-04T02:54:58;100788.09;;;13.24;100.00
50434;BME280;36361;38.954;-9.002;2023-12-04T02:55:59;100794.56;;;13.29;100.00
50434;BME280;36361;38.954;-9.002;2023-12-04T02:57:00;100791.91;;;13.23;100.00
50434;BME280;36361;38.954;-9.002;2023-12-04T02:58:00;100789.34;;;13.28;100.00
50434;BME280;36361;38.954;-9.002;2023-12-04T02:59:02;100787.66;;;13.27;100.00
50434;BME280;36361;38.954;-9.002;2023-12-04T03:00:03;100790.91;;;13.35;100.00
50434;BME280;36361;38.954;-9.002;2023-12-04T03:01:05;100780.91;;;13.29;100.00
50434;BME280;36361;38.954;-9.002;2023-12-04T03:02:06;100782.66;;;13.24;100.00
50434;BME280;36361;38.954;-9.002;2023-12-04T03:03:06;100782.28;;;13.20;100.00
50434;BME280;36361;38.954;-9.002;2023-12-04T03:04:07;100784.94;;;13.08;100.00
50434;BME280;36361;38.954;-9.002;2023-12-04T03:05:08;100777.88;;;13.01;100.00
50434;BME280;36361;38.954;-9.002;2023-12-04T03:06:09;100774.06;;;13.02;100.00
50434;BME280;36361;38.954;-9.002;2023-12-04T03:07:10;100785.28;;;13.12;100.00
50434;BME280;36361;38.954;-9.002;2023-12-04T03:08:11;100785.00;;;13.02;100.00
50434;BME280;36361;38.954;-9.002;2023-12-04T03:09:12;100779.53;;;13.02;100.00
50434;BME280;36361;38.954;-9.002;2023-12-04T03:10:12;100779.16;;;12.98;100.00
50434;BME280;36361;38.954;-9.002;2023-12-04T03:11:13;100782.41;;;13.07;100.00
50434;BME280;36361;38.954;-9.002;2023-12-04T03:12:14;100781.81;;;13.05;100.00
50434;BME280;36361;38.954;-9.002;2023-12-04T03:13:15;100780.63;;;12.82;100.00
50434;BME280;36361;38.954;-9.002;2023-12-04T03:14:15;100779.09;;;12.87;100.00
50434;BME280;36361;38.954;-9.002;2023-12-04T03:15:16;100778.66;;;12.71;100.00
50434;BME280;36361;38.954;-9.002;2023-12-04T03:16:17;100787.13;;;12.63;100.00
50434;BME280;36361;38.954;-9.002;2023-12-04T03:17:18;100783.56;;;12.81;100.00
50434;BME280;36361;38.954;-9.002;2023-12-04T03:18:19;100775.75;;;12.66;100.00
50434;BME280;36361;38.954;-9.002;2023-12-04T03:19:20;100786.72;;;12.60;100.00
50434;BME280;36361;38.954;-9.002;2023-12-04T03:20:21;100773.91;;;12.78;100.00
50434;BME280;36361;38.954;-9.002;2023-12-04T03:21:22;100778.47;;;12.85;100.00
50434;BME280;36361;38.954;-9.002;2023-12-04T03:22:23;100776.50;;;12.92;100.00
50434;BME280;36361;38.954;-9.002;2023-12-04T03:23:24;100775.97;;;12.83;100.00
50434;BME280;36361;38.954;-9.002;2023-12-04T03:24:25;100776.94;;;12.70;100.00
50434;BME280;36361;38.954;-9.002;2023-12-04T03:25:26;100773.31;;;12.58;100.00
50434;BME280;36361;38.954;-9.002;2023-12-04T03:26:27;100773.19;;;12.71;100.00
50434;BME280;36361;38.954;-9.002;2023-12-04T03:27:28;100767.78;;;12.65;100.00
50434;BME280;36361;38.954;-9.002;2023-12-04T03:28:29;100771.50;;;12.70;100.00
50434;BME280;36361;38.954;-9.002;2023-12-04T03:29:30;100775.75;;;12.66;100.00
50434;BME280;36361;38.954;-9.002;2023-12-04T03:30:31;100767.84;;;12.58;100.00
50434;BME280;36361;38.954;-9.002;2023-12-04T03:31:31;100770.50;;;12.46;100.00
50434;BME280;36361;38.954;-9.002;2023-12-04T03:32:34;100772.41;;;12.64;100.00
50434;BME280;36361;38.954;-9.002;2023-12-04T03:33:35;100771.66;;;12.57;100.00
50434;BME280;36361;38.954;-9.002;2023-12-04T03:34:36;100770.44;;;12.53;100.00
50434;BME280;36361;38.954;-9.002;2023-12-04T03:35:36;100769.44;;;12.66;100.00
50434;BME280;36361;38.954;-9.002;2023-12-04T03:36:37;100777.28;;;12.62;100.00
50434;BME280;36361;38.954;-9.002;2023-12-04T03:37:38;100774.97;;;12.59;100.00
50434;BME280;36361;38.954;-9.002;2023-12-04T03:38:39;100767.06;;;12.51;100.00
50434;BME280;36361;38.954;-9.002;2023-12-04T03:39:40;100774.53;;;12.62;100.00
50434;BME280;36361;38.954;-9.002;2023-12-04T03:40:40;100775.56;;;12.61;100.00
50434;BME280;36361;38.954;-9.002;2023-12-04T03:41:41;100779.53;;;12.65;100.00
50434;BME280;36361;38.954;-9.002;2023-12-04T03:42:42;100769.69;;;12.64;100.00
50434;BME280;36361;38.954;-9.002;2023-12-04T03:43:43;100773.88;;;12.42;100.00
50434;BME280;36361;38.954;-9.002;2023-12-04T03:44:44;100776.72;;;12.35;100.00
50434;BME280;36361;38.954;-9.002;2023-12-04T03:45:45;100771.91;;;12.31;100.00
50434;BME280;36361;38.954;-9.002;2023-12-04T03:46:47;100774.09;;;12.22;100.00
50434;BME280;36361;38.954;-9.002;2023-12-04T03:47:54;100780.69;;;12.33;100.00
50434;BME280;36361;38.954;-9.002;2023-12-04T03:48:55;100776.16;;;12.27;100.00
50434;BME280;36361;38.954;-9.002;2023-12-04T03:49:56;100776.06;;;12.33;100.00
50434;BME280;36361;38.954;-9.002;2023-12-04T03:50:57;100773.19;;;12.28;100.00
50434;BME280;36361;38.954;-9.002;2023-12-04T03:51:58;100772.75;;;12.31;100.00
50434;BME280;36361;38.954;-9.002;2023-12-04T03:52:58;100782.03;;;12.23;100.00
50434;BME280;36361;38.954;-9.002;2023-12-04T03:53:59;100777.03;;;12.20;100.00
50434;BME280;36361;38.954;-9.002;2023-12-04T03:55:00;100776.47;;;12.37;100.00
50434;BME280;36361;38.954;-9.002;2023-12-04T03:56:01;100783.47;;;12.51;100.00
50434;BME280;36361;38.954;-9.002;2023-12-04T03:57:02;100780.72;;;12.51;100.00
50434;BME280;36361;38.954;-9.002;2023-12-04T03:58:03;100782.19;;;12.53;100.00
50434;BME280;36361;38.954;-9.002;2023-12-04T03:59:03;100774.59;;;12.56;100.00
50434;BME280;36361;38.954;-9.002;2023-12-04T04:00:06;100773.69;;;12.62;100.00
50434;BME280;36361;38.954;-9.002;2023-12-04T04:01:12;100773.31;;;12.58;100.00
50434;BME280;36361;38.954;-9.002;2023-12-04T04:02:12;100782.56;;;12.57;100.00
50434;BME280;36361;38.954;-9.002;2023-12-04T04:03:13;100770.00;;;12.31;100.00
50434;BME280;36361;38.954;-9.002;2023-12-04T04:04:14;100772.38;;;12.28;100.00
50434;BME280;36361;38.954;-9.002;2023-12-04T04:05:15;100774.13;;;12.15;100.00
50434;BME280;36361;38.954;-9.002;2023-12-04T04:06:16;100768.25;;;12.18;100.00
50434;BME280;36361;38.954;-9.002;2023-12-04T04:07:17;100779.16;;;12.18;100.00
50434;BME280;36361;38.954;-9.002;2023-12-04T04:08:18;100777.28;;;12.19;100.00
50434;BME280;36361;38.954;-9.002;2023-12-04T04:09:18;100771.81;;;12.19;100.00
50434;BME280;36361;38.954;-9.002;2023-12-04T04:10:20;100773.94;;;12.17;100.00
50434;BME280;36361;38.954;-9.002;2023-12-04T04:11:21;100771.63;;;12.14;100.00
50434;BME280;36361;38.954;-9.002;2023-12-04T04:12:22;100768.31;;;12.12;100.00
50434;BME280;36361;38.954;-9.002;2023-12-04T04:13:22;100773.53;;;12.13;100.00
50434;BME280;36361;38.954;-9.002;2023-12-04T04:14:23;100779.41;;;12.17;100.00
50434;BME280;36361;38.954;-9.002;2023-12-04T04:15:25;100773.72;;;12.18;100.00
50434;BME280;36361;38.954;-9.002;2023-12-04T04:16:26;100784.16;;;12.21;100.00
50434;BME280;36361;38.954;-9.002;2023-12-04T04:17:27;100783.72;;;12.24;100.00
50434;BME280;36361;38.954;-9.002;2023-12-04T04:18:28;100791.47;;;12.28;100.00
50434;BME280;36361;38.954;-9.002;2023-12-04T04:19:29;100785.25;;;12.39;100.00
50434;BME280;36361;38.954;-9.002;2023-12-04T04:20:30;100789.97;;;12.50;100.00
50434;BME280;36361;38.954;-9.002;2023-12-04T04:21:30;100784.38;;;12.45;100.00
50434;BME280;36361;38.954;-9.002;2023-12-04T04:22:31;100789.22;;;12.61;100.00
50434;BME280;36361;38.954;-9.002;2023-12-04T04:23:37;100788.63;;;12.59;100.00
50434;BME280;36361;38.954;-9.002;2023-12-04T04:24:38;100776.94;;;12.52;100.00
50434;BME280;36361;38.954;-9.002;2023-12-04T04:25:39;100780.59;;;12.46;100.00
50434;BME280;36361;38.954;-9.002;2023-12-04T04:26:40;100787.97;;;12.64;100.00
50434;BME280;36361;38.954;-9.002;2023-12-04T04:27:40;100786.31;;;12.63;100.00
50434;BME280;36361;38.954;-9.002;2023-12-04T04:28:41;100787.84;;;12.52;100.00
50434;BME280;36361;38.954;-9.002;2023-12-04T04:29:42;100783.72;;;12.68;100.00
50434;BME280;36361;38.954;-9.002;2023-12-04T04:30:43;100783.94;;;12.66;100.00
50434;BME280;36361;38.954;-9.002;2023-12-04T04:31:44;100775.44;;;12.74;100.00
50434;BME280;36361;38.954;-9.002;2023-12-04T04:32:45;100782.28;;;12.84;100.00
50434;BME280;36361;38.954;-9.002;2023-12-04T04:33:45;100784.25;;;12.76;100.00
50434;BME280;36361;38.954;-9.002;2023-12-04T04:34:46;100782.41;;;12.89;100.00
50434;BME280;36361;38.954;-9.002;2023-12-04T04:35:50;100782.22;;;12.90;100.00
50434;BME280;36361;38.954;-9.002;2023-12-04T04:36:50;100773.50;;;12.81;100.00
50434;BME280;36361;38.954;-9.002;2023-12-04T04:37:51;100780.00;;;12.99;100.00
50434;BME280;36361;38.954;-9.002;2023-12-04T04:38:52;100779.38;;;12.97;100.00
50434;BME280;36361;38.954;-9.002;2023-12-04T04:39:53;100785.78;;;12.91;100.00
50434;BME280;36361;38.954;-9.002;2023-12-04T04:40:54;100791.06;;;13.04;100.00
50434;BME280;36361;38.954;-9.002;2023-12-04T04:41:54;100789.78;;;12.88;100.00
50434;BME280;36361;38.954;-9.002;2023-12-04T04:42:55;100784.84;;;12.78;100.00
50434;BME280;36361;38.954;-9.002;2023-12-04T04:43:56;100797.44;;;12.79;100.00
50434;BME280;36361;38.954;-9.002;2023-12-04T04:44:57;100786.13;;;12.76;100.00
50434;BME280;36361;38.954;-9.002;2023-12-04T04:46:01;100785.84;;;12.66;100.00
50434;BME280;36361;38.954;-9.002;2023-12-04T04:47:01;100785.69;;;12.79;100.00
50434;BME280;36361;38.954;-9.002;2023-12-04T04:48:03;100792.13;;;12.66;100.00
50434;BME280;36361;38.954;-9.002;2023-12-04T04:49:03;100791.84;;;12.74;100.00
50434;BME280;36361;38.954;-9.002;2023-12-04T04:50:07;100786.91;;;12.65;100.00
50434;BME280;36361;38.954;-9.002;2023-12-04T04:51:08;100791.59;;;12.76;100.00
50434;BME280;36361;38.954;-9.002;2023-12-04T04:52:09;100792.59;;;12.81;100.00
50434;BME280;36361;38.954;-9.002;2023-12-04T04:53:10;100788.34;;;12.67;100.00
50434;BME280;36361;38.954;-9.002;2023-12-04T04:54:11;100787.88;;;12.70;100.00
50434;BME280;36361;38.954;-9.002;2023-12-04T04:55:11;100787.97;;;12.64;100.00
50434;BME280;36361;38.954;-9.002;2023-12-04T04:56:12;100789.09;;;12.74;100.00
50434;BME280;36361;38.954;-9.002;2023-12-04T04:57:13;100789.94;;;12.75;100.00
50434;BME280;36361;38.954;-9.002;2023-12-04T04:58:14;100785.59;;;12.67;100.00
50434;BME280;36361;38.954;-9.002;2023-12-04T04:59:15;100791.75;;;12.63;100.00
50434;BME280;36361;38.954;-9.002;2023-12-04T05:00:16;100783.34;;;12.64;100.00
50434;BME280;36361;38.954;-9.002;2023-12-04T05:01:17;100781.50;;;12.76;100.00
50434;BME280;36361;38.954;-9.002;2023-12-04T05:02:17;100782.50;;;12.82;100.00
50434;BME280;36361;38.954;-9.002;2023-12-04T05:03:18;100781.38;;;12.71;100.00
50434;BME280;36361;38.954;-9.002;2023-12-04T05:04:19;100784.09;;;12.71;100.00
50434;BME280;36361;38.954;-9.002;2023-12-04T05:05:20;100779.31;;;12.85;100.00
50434;BME280;36361;38.954;-9.002;2023-12-04T05:06:20;100778.19;;;12.74;100.00
50434;BME280;36361;38.954;-9.002;2023-12-04T05:07:23;100780.16;;;12.86;100.00
50434;BME280;36361;38.954;-9.002;2023-12-04T05:08:23;100773.78;;;12.73;100.00
50434;BME280;36361;38.954;-9.002;2023-12-04T05:09:24;100773.19;;;12.71;100.00
50434;BME280;36361;38.954;-9.002;2023-12-04T05:10:25;100771.03;;;12.55;100.00
50434;BME280;36361;38.954;-9.002;2023-12-04T05:11:26;100772.19;;;12.66;100.00
50434;BME280;36361;38.954;-9.002;2023-12-04T05:12:27;100776.09;;;12.51;100.00